South Lexington, North Carolina
Current Conditions -  °F | °C
As of 9:55 PM on Sunday 23 Nov 2014 (Local Time) from KEXX Reporting Station
Scattered Clouds Scattered Clouds  
Wind Chill: 62°   Ceiling: Unl
Heat Index: 62°   Visibility: 10mi
Dew Point: 61°   Wind: 9mph
Humidity: 97%   Direction: 160°SSE
Pressure: 29.75"   Gusts: 22mph
Location:  35.7974°N, 80.2541°W
Report Text: KEXX 240255Z AUTO 16008G19KT 130V200 10SM SCT011 SCT034 SCT049 17/16 A2975 RMK AO2 P0034 60063 T01650160
Loading
Personal Weather Stations






























Interactive Weather Map New forecast layout! Learn more

10-Day Weather Forecast

Advertisements
Track Severe Weather on mobile